sensor_id;sensor_type;location;lat;lon;timestamp;P1;durP1;ratioP1;P2;durP2;ratioP2
12585;SDS011;6358;50.760;0.282;2023-04-22T00:01:42;5.20;;;3.37;;
12585;SDS011;6358;50.760;0.282;2023-04-22T00:04:08;3.50;;;3.20;;
12585;SDS011;6358;50.760;0.282;2023-04-22T00:06:35;3.80;;;3.23;;
12585;SDS011;6358;50.760;0.282;2023-04-22T00:09:01;3.43;;;3.13;;
12585;SDS011;6358;50.760;0.282;2023-04-22T00:11:27;3.80;;;3.50;;
12585;SDS011;6358;50.760;0.282;2023-04-22T00:13:53;4.43;;;3.63;;
12585;SDS011;6358;50.760;0.282;2023-04-22T00:16:19;4.00;;;3.70;;
12585;SDS011;6358;50.760;0.282;2023-04-22T00:18:46;4.47;;;4.00;;
12585;SDS011;6358;50.760;0.282;2023-04-22T00:21:12;4.33;;;3.77;;
12585;SDS011;6358;50.760;0.282;2023-04-22T00:23:38;4.27;;;3.97;;
12585;SDS011;6358;50.760;0.282;2023-04-22T00:26:04;4.50;;;4.10;;
12585;SDS011;6358;50.760;0.282;2023-04-22T00:28:30;4.10;;;3.80;;
12585;SDS011;6358;50.760;0.282;2023-04-22T00:30:56;4.10;;;3.80;;
12585;SDS011;6358;50.760;0.282;2023-04-22T00:33:23;5.30;;;4.10;;
12585;SDS011;6358;50.760;0.282;2023-04-22T00:35:49;4.47;;;4.03;;
12585;SDS011;6358;50.760;0.282;2023-04-22T00:38:15;4.43;;;4.03;;
12585;SDS011;6358;50.760;0.282;2023-04-22T00:40:41;4.43;;;4.03;;
12585;SDS011;6358;50.760;0.282;2023-04-22T00:43:07;4.50;;;4.10;;
12585;SDS011;6358;50.760;0.282;2023-04-22T00:45:35;4.70;;;4.20;;
12585;SDS011;6358;50.760;0.282;2023-04-22T00:48:01;4.47;;;4.07;;
12585;SDS011;6358;50.760;0.282;2023-04-22T00:50:27;4.47;;;4.07;;
12585;SDS011;6358;50.760;0.282;2023-04-22T00:52:53;4.60;;;4.20;;
12585;SDS011;6358;50.760;0.282;2023-04-22T00:55:19;4.73;;;4.30;;
12585;SDS011;6358;50.760;0.282;2023-04-22T00:57:46;4.43;;;4.03;;
12585;SDS011;6358;50.760;0.282;2023-04-22T01:00:13;5.87;;;4.27;;
12585;SDS011;6358;50.760;0.282;2023-04-22T01:02:40;4.60;;;4.20;;
12585;SDS011;6358;50.760;0.282;2023-04-22T01:05:06;4.50;;;4.10;;
12585;SDS011;6358;50.760;0.282;2023-04-22T01:07:34;4.90;;;4.50;;
12585;SDS011;6358;50.760;0.282;2023-04-22T01:10:00;4.77;;;4.37;;
12585;SDS011;6358;50.760;0.282;2023-04-22T01:12:27;4.63;;;4.23;;
12585;SDS011;6358;50.760;0.282;2023-04-22T01:14:53;4.73;;;4.33;;
12585;SDS011;6358;50.760;0.282;2023-04-22T01:17:19;4.83;;;4.43;;
12585;SDS011;6358;50.760;0.282;2023-04-22T01:19:46;5.10;;;4.70;;
12585;SDS011;6358;50.760;0.282;2023-04-22T01:22:13;4.60;;;4.20;;
12585;SDS011;6358;50.760;0.282;2023-04-22T01:24:39;6.93;;;4.50;;
12585;SDS011;6358;50.760;0.282;2023-04-22T01:27:06;5.63;;;5.13;;
12585;SDS011;6358;50.760;0.282;2023-04-22T01:29:32;5.27;;;4.80;;
12585;SDS011;6358;50.760;0.282;2023-04-22T01:31:58;5.60;;;5.00;;
12585;SDS011;6358;50.760;0.282;2023-04-22T01:34:25;5.33;;;4.83;;
12585;SDS011;6358;50.760;0.282;2023-04-22T01:36:51;5.13;;;4.73;;
12585;SDS011;6358;50.760;0.282;2023-04-22T01:39:17;5.30;;;4.80;;
12585;SDS011;6358;50.760;0.282;2023-04-22T01:41:43;4.93;;;4.43;;
12585;SDS011;6358;50.760;0.282;2023-04-22T01:44:10;5.27;;;4.67;;
12585;SDS011;6358;50.760;0.282;2023-04-22T01:46:36;5.30;;;4.87;;
12585;SDS011;6358;50.760;0.282;2023-04-22T01:49:02;5.27;;;4.77;;
12585;SDS011;6358;50.760;0.282;2023-04-22T01:51:28;5.30;;;4.90;;
12585;SDS011;6358;50.760;0.282;2023-04-22T01:53:55;5.60;;;5.10;;
12585;SDS011;6358;50.760;0.282;2023-04-22T01:56:21;5.53;;;5.03;;
12585;SDS011;6358;50.760;0.282;2023-04-22T01:58:48;5.20;;;4.70;;
12585;SDS011;6358;50.760;0.282;2023-04-22T02:01:14;5.07;;;4.57;;
12585;SDS011;6358;50.760;0.282;2023-04-22T02:03:40;5.23;;;4.73;;
12585;SDS011;6358;50.760;0.282;2023-04-22T02:06:06;5.23;;;4.80;;
12585;SDS011;6358;50.760;0.282;2023-04-22T02:08:32;5.60;;;5.10;;
12585;SDS011;6358;50.760;0.282;2023-04-22T02:10:58;5.03;;;4.63;;
12585;SDS011;6358;50.760;0.282;2023-04-22T02:13:25;5.20;;;4.77;;
12585;SDS011;6358;50.760;0.282;2023-04-22T02:15:51;5.63;;;5.13;;
12585;SDS011;6358;50.760;0.282;2023-04-22T02:18:18;5.10;;;4.60;;
12585;SDS011;6358;50.760;0.282;2023-04-22T02:20:44;5.70;;;5.13;;
12585;SDS011;6358;50.760;0.282;2023-04-22T02:23:10;5.20;;;4.80;;
12585;SDS011;6358;50.760;0.282;2023-04-22T02:25:36;5.57;;;5.07;;
12585;SDS011;6358;50.760;0.282;2023-04-22T02:28:03;5.70;;;5.20;;
12585;SDS011;6358;50.760;0.282;2023-04-22T02:30:29;5.37;;;4.87;;
12585;SDS011;6358;50.760;0.282;2023-04-22T02:32:55;5.47;;;4.97;;
12585;SDS011;6358;50.760;0.282;2023-04-22T02:35:21;5.57;;;5.07;;
12585;SDS011;6358;50.760;0.282;2023-04-22T02:37:47;4.87;;;4.47;;
12585;SDS011;6358;50.760;0.282;2023-04-22T02:40:13;5.23;;;4.70;;
12585;SDS011;6358;50.760;0.282;2023-04-22T02:42:39;5.20;;;4.70;;
12585;SDS011;6358;50.760;0.282;2023-04-22T02:45:05;5.60;;;5.10;;
12585;SDS011;6358;50.760;0.282;2023-04-22T02:47:32;5.50;;;5.00;;
12585;SDS011;6358;50.760;0.282;2023-04-22T02:49:58;5.40;;;4.90;;
12585;SDS011;6358;50.760;0.282;2023-04-22T02:52:24;5.40;;;4.70;;
12585;SDS011;6358;50.760;0.282;2023-04-22T02:54:50;5.27;;;4.77;;
12585;SDS011;6358;50.760;0.282;2023-04-22T02:57:16;5.33;;;4.83;;
12585;SDS011;6358;50.760;0.282;2023-04-22T02:59:42;5.20;;;4.70;;
12585;SDS011;6358;50.760;0.282;2023-04-22T03:02:08;7.17;;;4.97;;
12585;SDS011;6358;50.760;0.282;2023-04-22T03:04:35;5.13;;;4.63;;
12585;SDS011;6358;50.760;0.282;2023-04-22T03:07:02;5.17;;;4.67;;
12585;SDS011;6358;50.760;0.282;2023-04-22T03:09:28;5.10;;;4.60;;
12585;SDS011;6358;50.760;0.282;2023-04-22T03:11:54;5.13;;;4.53;;
12585;SDS011;6358;50.760;0.282;2023-04-22T03:14:20;5.37;;;4.87;;
12585;SDS011;6358;50.760;0.282;2023-04-22T03:16:46;5.50;;;5.00;;
12585;SDS011;6358;50.760;0.282;2023-04-22T03:19:12;5.10;;;4.70;;
12585;SDS011;6358;50.760;0.282;2023-04-22T03:21:40;5.80;;;4.57;;
12585;SDS011;6358;50.760;0.282;2023-04-22T03:24:06;5.13;;;4.63;;
12585;SDS011;6358;50.760;0.282;2023-04-22T03:26:32;4.93;;;4.43;;
12585;SDS011;6358;50.760;0.282;2023-04-22T03:28:58;5.07;;;4.57;;
12585;SDS011;6358;50.760;0.282;2023-04-22T03:31:25;5.37;;;4.33;;
12585;SDS011;6358;50.760;0.282;2023-04-22T03:33:51;5.40;;;4.63;;
12585;SDS011;6358;50.760;0.282;2023-04-22T03:36:17;4.90;;;4.40;;
12585;SDS011;6358;50.760;0.282;2023-04-22T03:38:43;4.67;;;4.27;;
12585;SDS011;6358;50.760;0.282;2023-04-22T03:41:09;5.90;;;4.73;;
12585;SDS011;6358;50.760;0.282;2023-04-22T03:43:35;4.93;;;4.43;;
12585;SDS011;6358;50.760;0.282;2023-04-22T03:46:01;5.20;;;4.70;;
12585;SDS011;6358;50.760;0.282;2023-04-22T03:48:27;4.83;;;4.40;;
12585;SDS011;6358;50.760;0.282;2023-04-22T03:50:57;4.20;;;3.90;;
12585;SDS011;6358;50.760;0.282;2023-04-22T03:53:23;5.10;;;4.60;;
12585;SDS011;6358;50.760;0.282;2023-04-22T03:55:49;4.70;;;4.30;;
12585;SDS011;6358;50.760;0.282;2023-04-22T03:58:15;4.43;;;4.03;;
12585;SDS011;6358;50.760;0.282;2023-04-22T04:00:41;5.47;;;4.27;;
12585;SDS011;6358;50.760;0.282;2023-04-22T04:03:08;4.30;;;3.90;;
12585;SDS011;6358;50.760;0.282;2023-04-22T04:05:34;4.43;;;4.03;;
12585;SDS011;6358;50.760;0.282;2023-04-22T04:08:00;4.37;;;3.97;;
12585;SDS011;6358;50.760;0.282;2023-04-22T04:10:26;4.67;;;4.00;;
12585;SDS011;6358;50.760;0.282;2023-04-22T04:12:52;4.70;;;4.20;;
12585;SDS011;6358;50.760;0.282;2023-04-22T04:15:19;5.00;;;4.27;;
12585;SDS011;6358;50.760;0.282;2023-04-22T04:17:45;4.30;;;3.90;;
12585;SDS011;6358;50.760;0.282;2023-04-22T04:20:12;4.33;;;3.93;;
12585;SDS011;6358;50.760;0.282;2023-04-22T04:22:38;4.27;;;3.87;;
12585;SDS011;6358;50.760;0.282;2023-04-22T04:25:04;4.23;;;3.90;;
12585;SDS011;6358;50.760;0.282;2023-04-22T04:27:31;4.37;;;3.97;;
12585;SDS011;6358;50.760;0.282;2023-04-22T04:29:57;4.50;;;4.07;;
12585;SDS011;6358;50.760;0.282;2023-04-22T04:32:24;4.07;;;3.77;;
12585;SDS011;6358;50.760;0.282;2023-04-22T04:34:50;4.00;;;3.70;;
12585;SDS011;6358;50.760;0.282;2023-04-22T04:37:16;4.07;;;3.77;;
12585;SDS011;6358;50.760;0.282;2023-04-22T04:39:43;4.57;;;4.17;;
12585;SDS011;6358;50.760;0.282;2023-04-22T04:42:09;4.10;;;3.67;;
12585;SDS011;6358;50.760;0.282;2023-04-22T04:44:36;4.03;;;3.63;;
12585;SDS011;6358;50.760;0.282;2023-04-22T04:47:02;3.83;;;3.43;;
12585;SDS011;6358;50.760;0.282;2023-04-22T04:49:29;3.90;;;3.60;;
12585;SDS011;6358;50.760;0.282;2023-04-22T04:51:56;3.97;;;3.60;;
12585;SDS011;6358;50.760;0.282;2023-04-22T04:54:22;3.50;;;3.20;;
12585;SDS011;6358;50.760;0.282;2023-04-22T04:56:48;4.03;;;3.60;;
12585;SDS011;6358;50.760;0.282;2023-04-22T04:59:14;4.27;;;3.87;;
12585;SDS011;6358;50.760;0.282;2023-04-22T05:01:40;4.83;;;3.70;;
12585;SDS011;6358;50.760;0.282;2023-04-22T05:04:06;3.80;;;3.50;;
12585;SDS011;6358;50.760;0.282;2023-04-22T05:06:32;3.97;;;3.67;;
12585;SDS011;6358;50.760;0.282;2023-04-22T05:08:58;3.33;;;3.03;;
12585;SDS011;6358;50.760;0.282;2023-04-22T05:11:24;3.63;;;3.33;;
12585;SDS011;6358;50.760;0.282;2023-04-22T05:13:50;4.20;;;3.53;;
12585;SDS011;6358;50.760;0.282;2023-04-22T05:16:16;3.90;;;3.60;;
12585;SDS011;6358;50.760;0.282;2023-04-22T05:18:42;4.03;;;3.67;;
12585;SDS011;6358;50.760;0.282;2023-04-22T05:21:08;3.43;;;3.13;;
12585;SDS011;6358;50.760;0.282;2023-04-22T05:23:35;3.37;;;3.07;;
12585;SDS011;6358;50.760;0.282;2023-04-22T05:26:01;3.60;;;3.30;;
12585;SDS011;6358;50.760;0.282;2023-04-22T05:28:27;3.37;;;3.07;;
12585;SDS011;6358;50.760;0.282;2023-04-22T05:30:53;4.83;;;3.33;;
12585;SDS011;6358;50.760;0.282;2023-04-22T05:33:19;3.57;;;3.27;;
12585;SDS011;6358;50.760;0.282;2023-04-22T05:35:45;3.77;;;3.40;;
12585;SDS011;6358;50.760;0.282;2023-04-22T05:38:11;3.63;;;3.33;;
12585;SDS011;6358;50.760;0.282;2023-04-22T05:40:37;3.40;;;3.00;;
12585;SDS011;6358;50.760;0.282;2023-04-22T05:43:04;3.50;;;3.17;;
12585;SDS011;6358;50.760;0.282;2023-04-22T05:45:30;4.50;;;3.57;;
12585;SDS011;6358;50.760;0.282;2023-04-22T05:47:56;3.20;;;2.90;;
12585;SDS011;6358;50.760;0.282;2023-04-22T05:50:22;3.37;;;3.07;;
12585;SDS011;6358;50.760;0.282;2023-04-22T05:52:48;3.13;;;2.90;;
12585;SDS011;6358;50.760;0.282;2023-04-22T05:55:15;5.03;;;2.97;;
12585;SDS011;6358;50.760;0.282;2023-04-22T05:57:41;3.40;;;3.10;;
12585;SDS011;6358;50.760;0.282;2023-04-22T06:00:07;3.57;;;2.90;;
12585;SDS011;6358;50.760;0.282;2023-04-22T06:02:33;3.57;;;2.97;;
12585;SDS011;6358;50.760;0.282;2023-04-22T06:05:00;3.30;;;3.00;;
12585;SDS011;6358;50.760;0.282;2023-04-22T06:07:26;2.90;;;2.70;;
12585;SDS011;6358;50.760;0.282;2023-04-22T06:09:52;4.13;;;3.23;;
12585;SDS011;6358;50.760;0.282;2023-04-22T06:12:18;2.90;;;2.70;;
12585;SDS011;6358;50.760;0.282;2023-04-22T06:14:44;3.10;;;2.80;;
12585;SDS011;6358;50.760;0.282;2023-04-22T06:17:10;3.20;;;2.90;;
12585;SDS011;6358;50.760;0.282;2023-04-22T06:19:36;3.60;;;3.30;;
12585;SDS011;6358;50.760;0.282;2023-04-22T06:22:02;3.10;;;2.90;;
12585;SDS011;6358;50.760;0.282;2023-04-22T06:24:28;3.30;;;3.00;;
12585;SDS011;6358;50.760;0.282;2023-04-22T06:26:54;3.20;;;2.90;;
12585;SDS011;6358;50.760;0.282;2023-04-22T06:29:22;3.03;;;2.73;;
12585;SDS011;6358;50.760;0.282;2023-04-22T06:31:48;3.60;;;3.27;;
12585;SDS011;6358;50.760;0.282;2023-04-22T06:34:14;3.17;;;2.87;;
12585;SDS011;6358;50.760;0.282;2023-04-22T06:36:40;2.83;;;2.63;;
12585;SDS011;6358;50.760;0.282;2023-04-22T06:39:06;3.10;;;2.80;;
12585;SDS011;6358;50.760;0.282;2023-04-22T06:41:34;3.07;;;2.80;;
12585;SDS011;6358;50.760;0.282;2023-04-22T06:44:01;3.10;;;2.80;;
12585;SDS011;6358;50.760;0.282;2023-04-22T06:46:27;3.10;;;2.90;;
12585;SDS011;6358;50.760;0.282;2023-04-22T06:48:53;3.00;;;2.80;;
12585;SDS011;6358;50.760;0.282;2023-04-22T06:51:19;3.07;;;2.77;;
12585;SDS011;6358;50.760;0.282;2023-04-22T06:53:45;3.30;;;3.00;;
12585;SDS011;6358;50.760;0.282;2023-04-22T06:56:11;3.07;;;2.77;;
12585;SDS011;6358;50.760;0.282;2023-04-22T06:58:37;3.47;;;2.93;;
12585;SDS011;6358;50.760;0.282;2023-04-22T07:01:03;2.93;;;2.73;;
12585;SDS011;6358;50.760;0.282;2023-04-22T07:03:29;3.80;;;2.97;;
12585;SDS011;6358;50.760;0.282;2023-04-22T07:05:55;3.30;;;2.50;;
12585;SDS011;6358;50.760;0.282;2023-04-22T07:08:21;3.00;;;2.70;;
12585;SDS011;6358;50.760;0.282;2023-04-22T07:10:47;2.73;;;2.53;;
12585;SDS011;6358;50.760;0.282;2023-04-22T07:13:13;3.00;;;2.80;;
12585;SDS011;6358;50.760;0.282;2023-04-22T07:15:39;3.03;;;2.77;;
12585;SDS011;6358;50.760;0.282;2023-04-22T07:18:05;2.97;;;2.77;;
12585;SDS011;6358;50.760;0.282;2023-04-22T07:20:32;2.80;;;2.60;;
12585;SDS011;6358;50.760;0.282;2023-04-22T07:22:58;3.30;;;2.90;;
12585;SDS011;6358;50.760;0.282;2023-04-22T07:25:24;2.90;;;2.67;;
12585;SDS011;6358;50.760;0.282;2023-04-22T07:27:50;3.20;;;2.80;;
12585;SDS011;6358;50.760;0.282;2023-04-22T07:30:16;2.70;;;2.50;;
12585;SDS011;6358;50.760;0.282;2023-04-22T07:32:42;2.90;;;2.70;;
12585;SDS011;6358;50.760;0.282;2023-04-22T07:35:08;3.03;;;2.60;;
12585;SDS011;6358;50.760;0.282;2023-04-22T07:37:34;2.80;;;2.60;;
12585;SDS011;6358;50.760;0.282;2023-04-22T07:40:00;2.70;;;2.50;;
12585;SDS011;6358;50.760;0.282;2023-04-22T07:42:27;2.63;;;2.43;;
12585;SDS011;6358;50.760;0.282;2023-04-22T07:44:53;2.70;;;2.50;;
12585;SDS011;6358;50.760;0.282;2023-04-22T07:47:19;2.67;;;2.47;;
12585;SDS011;6358;50.760;0.282;2023-04-22T07:49:45;3.27;;;2.80;;
12585;SDS011;6358;50.760;0.282;2023-04-22T07:52:11;2.87;;;2.40;;
12585;SDS011;6358;50.760;0.282;2023-04-22T07:54:37;3.00;;;2.70;;
12585;SDS011;6358;50.760;0.282;2023-04-22T07:57:03;3.53;;;2.70;;
12585;SDS011;6358;50.760;0.282;2023-04-22T07:59:29;2.77;;;2.57;;
12585;SDS011;6358;50.760;0.282;2023-04-22T08:01:55;3.00;;;2.80;;
12585;SDS011;6358;50.760;0.282;2023-04-22T08:04:21;3.00;;;2.70;;
12585;SDS011;6358;50.760;0.282;2023-04-22T08:06:48;2.97;;;2.70;;
12585;SDS011;6358;50.760;0.282;2023-04-22T08:09:14;2.90;;;2.70;;
12585;SDS011;6358;50.760;0.282;2023-04-22T08:11:40;2.93;;;2.63;;
12585;SDS011;6358;50.760;0.282;2023-04-22T08:14:06;3.37;;;3.07;;
12585;SDS011;6358;50.760;0.282;2023-04-22T08:16:32;2.70;;;2.50;;
12585;SDS011;6358;50.760;0.282;2023-04-22T08:18:58;2.60;;;2.40;;
12585;SDS011;6358;50.760;0.282;2023-04-22T08:21:24;2.87;;;2.67;;
12585;SDS011;6358;50.760;0.282;2023-04-22T08:23:51;2.90;;;2.50;;
12585;SDS011;6358;50.760;0.282;2023-04-22T08:26:18;3.00;;;2.70;;
12585;SDS011;6358;50.760;0.282;2023-04-22T08:28:45;3.27;;;2.60;;
12585;SDS011;6358;50.760;0.282;2023-04-22T08:31:11;3.20;;;2.90;;
12585;SDS011;6358;50.760;0.282;2023-04-22T08:33:38;2.67;;;2.47;;
12585;SDS011;6358;50.760;0.282;2023-04-22T08:36:05;2.73;;;2.53;;
12585;SDS011;6358;50.760;0.282;2023-04-22T08:38:31;3.00;;;2.70;;
12585;SDS011;6358;50.760;0.282;2023-04-22T08:40:57;3.73;;;3.40;;
12585;SDS011;6358;50.760;0.282;2023-04-22T08:43:24;2.63;;;2.40;;
12585;SDS011;6358;50.760;0.282;2023-04-22T08:45:51;2.80;;;2.50;;
12585;SDS011;6358;50.760;0.282;2023-04-22T08:48:20;2.80;;;2.47;;
12585;SDS011;6358;50.760;0.282;2023-04-22T08:50:46;2.83;;;2.60;;
12585;SDS011;6358;50.760;0.282;2023-04-22T08:53:13;2.87;;;2.57;;
12585;SDS011;6358;50.760;0.282;2023-04-22T08:55:42;2.80;;;2.60;;
12585;SDS011;6358;50.760;0.282;2023-04-22T08:58:09;2.80;;;2.60;;
12585;SDS011;6358;50.760;0.282;2023-04-22T09:00:37;2.57;;;2.37;;
12585;SDS011;6358;50.760;0.282;2023-04-22T09:03:03;3.20;;;2.90;;
12585;SDS011;6358;50.760;0.282;2023-04-22T09:05:31;2.80;;;2.60;;
12585;SDS011;6358;50.760;0.282;2023-04-22T09:07:58;3.00;;;2.50;;
12585;SDS011;6358;50.760;0.282;2023-04-22T09:10:24;3.17;;;2.70;;
12585;SDS011;6358;50.760;0.282;2023-04-22T09:12:50;3.50;;;2.70;;
12585;SDS011;6358;50.760;0.282;2023-04-22T09:15:16;3.20;;;2.83;;
12585;SDS011;6358;50.760;0.282;2023-04-22T09:17:42;2.70;;;2.50;;
12585;SDS011;6358;50.760;0.282;2023-04-22T09:20:09;2.80;;;2.60;;
12585;SDS011;6358;50.760;0.282;2023-04-22T09:22:40;2.80;;;2.60;;
12585;SDS011;6358;50.760;0.282;2023-04-22T09:27:48;2.87;;;2.43;;
12585;SDS011;6358;50.760;0.282;2023-04-22T09:30:15;3.27;;;2.97;;
12585;SDS011;6358;50.760;0.282;2023-04-22T09:32:50;3.53;;;2.70;;
12585;SDS011;6358;50.760;0.282;2023-04-22T09:35:21;3.17;;;2.87;;
12585;SDS011;6358;50.760;0.282;2023-04-22T09:37:50;2.80;;;2.60;;
12585;SDS011;6358;50.760;0.282;2023-04-22T09:40:17;2.90;;;2.70;;
12585;SDS011;6358;50.760;0.282;2023-04-22T09:42:50;3.10;;;2.90;;
12585;SDS011;6358;50.760;0.282;2023-04-22T09:45:26;3.20;;;2.90;;
12585;SDS011;6358;50.760;0.282;2023-04-22T09:47:54;3.27;;;2.70;;
12585;SDS011;6358;50.760;0.282;2023-04-22T09:50:21;3.30;;;3.00;;
12585;SDS011;6358;50.760;0.282;2023-04-22T09:53:02;4.03;;;3.13;;
12585;SDS011;6358;50.760;0.282;2023-04-22T09:55:29;3.27;;;2.97;;
12585;SDS011;6358;50.760;0.282;2023-04-22T09:57:56;4.07;;;3.20;;
12585;SDS011;6358;50.760;0.282;2023-04-22T10:00:28;3.53;;;3.23;;
12585;SDS011;6358;50.760;0.282;2023-04-22T10:02:55;3.60;;;3.30;;
12585;SDS011;6358;50.760;0.282;2023-04-22T10:05:21;3.50;;;3.20;;
12585;SDS011;6358;50.760;0.282;2023-04-22T10:07:47;3.20;;;2.90;;
12585;SDS011;6358;50.760;0.282;2023-04-22T10:10:13;3.40;;;3.10;;
12585;SDS011;6358;50.760;0.282;2023-04-22T10:12:39;3.67;;;3.37;;
12585;SDS011;6358;50.760;0.282;2023-04-22T10:15:06;3.47;;;3.07;;
12585;SDS011;6358;50.760;0.282;2023-04-22T10:17:33;3.33;;;3.00;;
12585;SDS011;6358;50.760;0.282;2023-04-22T10:20:01;3.83;;;3.17;;
12585;SDS011;6358;50.760;0.282;2023-04-22T10:22:29;3.57;;;3.27;;
12585;SDS011;6358;50.760;0.282;2023-04-22T10:24:56;3.50;;;3.20;;
12585;SDS011;6358;50.760;0.282;2023-04-22T10:27:22;3.70;;;3.40;;
12585;SDS011;6358;50.760;0.282;2023-04-22T10:29:48;3.47;;;3.17;;
12585;SDS011;6358;50.760;0.282;2023-04-22T10:34:47;3.30;;;3.00;;
12585;SDS011;6358;50.760;0.282;2023-04-22T10:37:16;3.83;;;3.00;;
12585;SDS011;6358;50.760;0.282;2023-04-22T10:40:04;4.10;;;3.20;;
12585;SDS011;6358;50.760;0.282;2023-04-22T10:42:29;3.40;;;3.10;;
12585;SDS011;6358;50.760;0.282;2023-04-22T10:44:59;3.57;;;3.27;;
12585;SDS011;6358;50.760;0.282;2023-04-22T10:50:07;3.30;;;3.00;;
12585;SDS011;6358;50.760;0.282;2023-04-22T10:52:33;3.40;;;3.10;;
12585;SDS011;6358;50.760;0.282;2023-04-22T10:55:00;3.30;;;3.00;;
12585;SDS011;6358;50.760;0.282;2023-04-22T10:57:30;3.57;;;3.27;;
12585;SDS011;6358;50.760;0.282;2023-04-22T11:02:51;3.40;;;3.10;;
12585;SDS011;6358;50.760;0.282;2023-04-22T11:05:19;3.30;;;2.90;;
12585;SDS011;6358;50.760;0.282;2023-04-22T11:07:49;3.17;;;2.97;;
12585;SDS011;6358;50.760;0.282;2023-04-22T11:12:55;5.07;;;2.90;;
12585;SDS011;6358;50.760;0.282;2023-04-22T11:15:22;3.30;;;3.00;;
12585;SDS011;6358;50.760;0.282;2023-04-22T11:17:51;3.77;;;3.00;;
12585;SDS011;6358;50.760;0.282;2023-04-22T11:20:18;2.90;;;2.70;;
12585;SDS011;6358;50.760;0.282;2023-04-22T11:22:49;2.73;;;2.53;;
12585;SDS011;6358;50.760;0.282;2023-04-22T11:25:15;3.13;;;2.80;;
12585;SDS011;6358;50.760;0.282;2023-04-22T11:27:41;3.00;;;2.80;;
12585;SDS011;6358;50.760;0.282;2023-04-22T11:32:35;3.10;;;2.60;;
12585;SDS011;6358;50.760;0.282;2023-04-22T11:35:02;3.40;;;2.77;;
12585;SDS011;6358;50.760;0.282;2023-04-22T11:37:29;2.90;;;2.70;;
12585;SDS011;6358;50.760;0.282;2023-04-22T11:40:01;3.23;;;2.90;;
12585;SDS011;6358;50.760;0.282;2023-04-22T11:42:28;3.40;;;2.90;;
12585;SDS011;6358;50.760;0.282;2023-04-22T11:44:54;3.13;;;2.80;;
12585;SDS011;6358;50.760;0.282;2023-04-22T11:47:20;2.97;;;2.67;;
12585;SDS011;6358;50.760;0.282;2023-04-22T11:49:53;3.00;;;2.70;;
12585;SDS011;6358;50.760;0.282;2023-04-22T11:52:20;3.07;;;2.87;;
12585;SDS011;6358;50.760;0.282;2023-04-22T11:54:46;2.83;;;2.63;;
12585;SDS011;6358;50.760;0.282;2023-04-22T11:57:12;3.03;;;2.83;;
12585;SDS011;6358;50.760;0.282;2023-04-22T11:59:39;2.63;;;2.43;;
12585;SDS011;6358;50.760;0.282;2023-04-22T12:02:06;2.83;;;2.63;;
12585;SDS011;6358;50.760;0.282;2023-04-22T12:04:36;2.90;;;2.70;;
12585;SDS011;6358;50.760;0.282;2023-04-22T12:07:02;3.60;;;3.30;;
12585;SDS011;6358;50.760;0.282;2023-04-22T12:09:29;3.37;;;2.70;;
12585;SDS011;6358;50.760;0.282;2023-04-22T12:11:55;3.37;;;3.07;;
12585;SDS011;6358;50.760;0.282;2023-04-22T12:14:27;3.00;;;2.70;;
12585;SDS011;6358;50.760;0.282;2023-04-22T12:16:55;3.43;;;3.00;;
12585;SDS011;6358;50.760;0.282;2023-04-22T12:19:25;3.20;;;2.87;;
12585;SDS011;6358;50.760;0.282;2023-04-22T12:21:54;3.07;;;2.87;;
12585;SDS011;6358;50.760;0.282;2023-04-22T12:24:26;2.90;;;2.70;;
12585;SDS011;6358;50.760;0.282;2023-04-22T12:26:52;4.40;;;2.70;;
12585;SDS011;6358;50.760;0.282;2023-04-22T12:29:25;2.90;;;2.70;;
12585;SDS011;6358;50.760;0.282;2023-04-22T12:31:52;3.03;;;2.73;;
12585;SDS011;6358;50.760;0.282;2023-04-22T12:34:18;2.60;;;2.40;;
12585;SDS011;6358;50.760;0.282;2023-04-22T12:36:44;3.00;;;2.80;;
12585;SDS011;6358;50.760;0.282;2023-04-22T12:39:10;3.03;;;2.73;;
12585;SDS011;6358;50.760;0.282;2023-04-22T12:41:36;3.00;;;2.70;;
12585;SDS011;6358;50.760;0.282;2023-04-22T12:44:02;3.00;;;2.70;;
12585;SDS011;6358;50.760;0.282;2023-04-22T12:46:29;3.30;;;3.00;;
12585;SDS011;6358;50.760;0.282;2023-04-22T12:48:55;3.73;;;2.90;;
12585;SDS011;6358;50.760;0.282;2023-04-22T12:51:21;3.37;;;2.70;;
12585;SDS011;6358;50.760;0.282;2023-04-22T12:53:47;4.30;;;2.60;;
12585;SDS011;6358;50.760;0.282;2023-04-22T12:56:13;3.03;;;2.80;;
12585;SDS011;6358;50.760;0.282;2023-04-22T12:58:39;3.37;;;2.83;;
12585;SDS011;6358;50.760;0.282;2023-04-22T13:01:05;3.13;;;2.83;;
12585;SDS011;6358;50.760;0.282;2023-04-22T13:03:31;3.20;;;2.90;;
12585;SDS011;6358;50.760;0.282;2023-04-22T13:05:57;2.67;;;2.47;;
12585;SDS011;6358;50.760;0.282;2023-04-22T13:08:23;2.90;;;2.70;;
12585;SDS011;6358;50.760;0.282;2023-04-22T13:10:50;3.33;;;3.03;;
12585;SDS011;6358;50.760;0.282;2023-04-22T13:13:16;3.30;;;3.00;;
12585;SDS011;6358;50.760;0.282;2023-04-22T13:15:42;3.60;;;2.77;;
12585;SDS011;6358;50.760;0.282;2023-04-22T13:18:08;5.50;;;3.20;;
12585;SDS011;6358;50.760;0.282;2023-04-22T13:20:34;3.93;;;2.70;;
12585;SDS011;6358;50.760;0.282;2023-04-22T13:23:00;3.40;;;2.90;;
12585;SDS011;6358;50.760;0.282;2023-04-22T13:25:28;3.20;;;2.90;;
12585;SDS011;6358;50.760;0.282;2023-04-22T13:27:54;5.40;;;2.90;;
12585;SDS011;6358;50.760;0.282;2023-04-22T13:30:20;3.00;;;2.70;;
12585;SDS011;6358;50.760;0.282;2023-04-22T13:32:46;3.50;;;3.10;;
12585;SDS011;6358;50.760;0.282;2023-04-22T13:35:12;3.20;;;2.90;;
12585;SDS011;6358;50.760;0.282;2023-04-22T13:37:39;2.80;;;2.60;;
12585;SDS011;6358;50.760;0.282;2023-04-22T13:40:05;3.10;;;2.90;;
12585;SDS011;6358;50.760;0.282;2023-04-22T13:42:32;3.03;;;2.70;;
12585;SDS011;6358;50.760;0.282;2023-04-22T13:44:58;3.07;;;2.77;;
12585;SDS011;6358;50.760;0.282;2023-04-22T13:47:24;4.10;;;2.73;;
12585;SDS011;6358;50.760;0.282;2023-04-22T13:49:50;2.90;;;2.60;;
12585;SDS011;6358;50.760;0.282;2023-04-22T13:52:16;3.20;;;2.90;;
12585;SDS011;6358;50.760;0.282;2023-04-22T13:54:42;3.37;;;3.07;;
12585;SDS011;6358;50.760;0.282;2023-04-22T13:57:08;2.87;;;2.60;;
12585;SDS011;6358;50.760;0.282;2023-04-22T13:59:34;3.40;;;2.70;;
12585;SDS011;6358;50.760;0.282;2023-04-22T14:02:01;3.50;;;2.80;;
12585;SDS011;6358;50.760;0.282;2023-04-22T14:04:27;3.33;;;2.70;;
12585;SDS011;6358;50.760;0.282;2023-04-22T14:06:53;3.23;;;2.70;;
12585;SDS011;6358;50.760;0.282;2023-04-22T14:09:19;2.77;;;2.57;;
12585;SDS011;6358;50.760;0.282;2023-04-22T14:11:45;2.90;;;2.70;;
12585;SDS011;6358;50.760;0.282;2023-04-22T14:14:11;3.17;;;2.70;;
12585;SDS011;6358;50.760;0.282;2023-04-22T14:16:37;3.77;;;2.50;;
12585;SDS011;6358;50.760;0.282;2023-04-22T14:19:03;2.70;;;2.50;;
12585;SDS011;6358;50.760;0.282;2023-04-22T14:21:30;2.73;;;2.50;;
12585;SDS011;6358;50.760;0.282;2023-04-22T14:23:56;3.27;;;2.67;;
12585;SDS011;6358;50.760;0.282;2023-04-22T14:26:22;2.70;;;2.50;;
12585;SDS011;6358;50.760;0.282;2023-04-22T14:28:48;3.57;;;2.80;;
12585;SDS011;6358;50.760;0.282;2023-04-22T14:31:14;3.20;;;2.90;;
12585;SDS011;6358;50.760;0.282;2023-04-22T14:33:40;2.63;;;2.43;;
12585;SDS011;6358;50.760;0.282;2023-04-22T14:36:06;2.97;;;2.77;;
12585;SDS011;6358;50.760;0.282;2023-04-22T14:38:32;4.00;;;2.87;;
12585;SDS011;6358;50.760;0.282;2023-04-22T14:40:58;2.87;;;2.67;;
12585;SDS011;6358;50.760;0.282;2023-04-22T14:43:24;3.10;;;2.90;;
12585;SDS011;6358;50.760;0.282;2023-04-22T14:45:51;2.40;;;2.20;;
12585;SDS011;6358;50.760;0.282;2023-04-22T14:48:17;3.07;;;2.80;;
12585;SDS011;6358;50.760;0.282;2023-04-22T14:50:43;2.60;;;2.40;;
12585;SDS011;6358;50.760;0.282;2023-04-22T14:53:09;2.90;;;2.70;;
12585;SDS011;6358;50.760;0.282;2023-04-22T14:55:35;3.90;;;2.70;;
12585;SDS011;6358;50.760;0.282;2023-04-22T14:58:01;3.13;;;2.77;;
12585;SDS011;6358;50.760;0.282;2023-04-22T15:00:27;2.77;;;2.57;;
12585;SDS011;6358;50.760;0.282;2023-04-22T15:02:54;3.37;;;2.43;;
12585;SDS011;6358;50.760;0.282;2023-04-22T15:05:20;3.10;;;2.50;;
12585;SDS011;6358;50.760;0.282;2023-04-22T15:07:47;2.73;;;2.53;;
12585;SDS011;6358;50.760;0.282;2023-04-22T15:10:13;2.90;;;2.60;;
12585;SDS011;6358;50.760;0.282;2023-04-22T15:12:41;2.57;;;2.37;;